Time;durP1;ratioP1;P1;durP2;ratioP2;P2;SDS_P1;SDS_P2;PMS_P1;PMS_P2;Temp;Humidity;BMP_temperature;BMP_pressure;BME280_temperature;BME280_humidity;BME280_pressure;Samples;Min_cycle;Max_cycle;Signal;HPM_P1;HPM_P2
2023/03/05 00:00:56;;;;;;;2.40;0.88;;;;;;;2.83;100.00;101608.66;6317508;28;20054;-72
2023/03/05 00:03:57;;;;;;;6.88;1.23;;;;;;;2.79;100.00;101604.34;6323208;28;20048;-72
2023/03/05 00:06:59;;;;;;;5.75;1.15;;;;;;;2.82;100.00;101609.53;6300404;28;20048;-72
2023/03/05 00:10:04;;;;;;;5.78;1.27;;;;;;;2.76;100.00;101604.38;6300271;28;20063;-72
2023/03/05 00:13:06;;;;;;;8.10;1.02;;;;;;;2.77;100.00;101600.88;6300548;28;20047;-72
2023/03/05 00:16:10;;;;;;;2.25;0.90;;;;;;;2.83;100.00;101602.59;6300310;28;20174;-72
2023/03/05 00:19:11;;;;;;;3.13;1.20;;;;;;;2.86;100.00;101600.84;6300570;28;20044;-72
2023/03/05 00:22:12;;;;;;;15.07;1.50;;;;;;;2.82;100.00;101591.34;6303721;28;20051;-72
2023/03/05 00:25:15;;;;;;;2.00;0.93;;;;;;;2.80;100.00;101587.91;6303786;28;20047;-72
2023/03/05 00:28:16;;;;;;;9.85;1.08;;;;;;;2.82;100.00;101575.78;6302194;28;20045;-72
2023/03/05 00:31:20;;;;;;;7.13;1.48;;;;;;;2.73;100.00;101575.84;6315915;28;20040;-72
2023/03/05 00:34:24;;;;;;;4.13;1.02;;;;;;;2.71;100.00;101577.59;6309612;28;20044;-72
2023/03/05 00:37:25;;;;;;;3.03;1.83;;;;;;;2.74;100.00;101573.25;6300196;28;20044;-72
2023/03/05 00:40:28;;;;;;;5.05;1.52;;;;;;;2.72;100.00;101568.91;6306259;28;20043;-72
2023/03/05 00:43:30;;;;;;;5.70;1.27;;;;;;;2.75;100.00;101568.91;6301939;28;20056;-72
2023/03/05 00:46:31;;;;;;;3.00;0.73;;;;;;;2.65;100.00;101562.06;6299659;28;20425;-72
2023/03/05 00:49:32;;;;;;;8.65;1.40;;;;;;;2.60;100.00;101546.53;6299695;28;20368;-72
2023/03/05 00:52:34;;;;;;;4.90;0.98;;;;;;;2.67;100.00;101561.16;6311863;28;20173;-72
2023/03/05 00:55:36;;;;;;;2.17;1.02;;;;;;;2.68;100.00;101549.94;6324632;28;20040;-72
2023/03/05 00:58:38;;;;;;;7.20;1.83;;;;;;;2.68;100.00;101544.75;6324722;28;20063;-72
2023/03/05 01:01:39;;;;;;;4.85;1.17;;;;;;;2.60;100.00;101530.97;6324695;28;20052;-72
2023/03/05 01:04:44;;;;;;;2.83;0.85;;;;;;;2.58;100.00;101532.69;6316284;28;20063;-72
2023/03/05 01:07:46;;;;;;;8.80;1.00;;;;;;;2.65;100.00;101530.94;6324644;28;20056;-72
2023/03/05 01:10:48;;;;;;;0.93;0.63;;;;;;;2.63;100.00;101530.06;6324625;28;20051;-72
2023/03/05 01:13:50;;;;;;;4.85;1.63;;;;;;;2.68;100.00;101525.69;6324361;28;20366;-72
2023/03/05 01:16:51;;;;;;;3.60;1.45;;;;;;;2.71;100.00;101530.88;6324593;28;20040;-72
2023/03/05 01:19:52;;;;;;;2.10;0.68;;;;;;;2.71;100.00;101529.13;6306035;28;20083;-72
2023/03/05 01:22:53;;;;;;;5.03;1.10;;;;;;;2.60;100.00;101522.34;6318402;28;20044;-72
2023/03/05 01:25:58;;;;;;;2.78;0.90;;;;;;;2.57;100.00;101518.00;6324269;28;20048;-72
2023/03/05 01:29:00;;;;;;;3.85;1.52;;;;;;;2.55;100.00;101514.59;6324647;28;20055;-72
2023/03/05 01:32:01;;;;;;;4.97;1.05;;;;;;;2.62;100.00;101508.44;6325912;28;20052;-72
2023/03/05 01:35:04;;;;;;;4.65;1.13;;;;;;;2.57;100.00;101504.19;6328907;28;20142;-72
2023/03/05 01:38:05;;;;;;;0.77;0.50;;;;;;;2.64;100.00;101511.06;6329012;28;20447;-72
2023/03/05 01:41:08;;;;;;;3.00;0.77;;;;;;;2.60;100.00;101502.44;6308580;28;20044;-72
2023/03/05 01:44:21;;;;;;;2.42;1.05;;;;;;;2.59;100.00;101500.72;6303755;28;20059;-72
2023/03/05 01:47:23;;;;;;;2.20;1.23;;;;;;;2.61;100.00;101505.88;6303446;28;20045;-72
2023/03/05 01:50:26;;;;;;;12.07;1.20;;;;;;;2.62;100.00;101492.88;6305372;28;20047;-71
2023/03/05 01:53:27;;;;;;;8.68;1.30;;;;;;;2.61;100.00;101492.91;6328734;28;20044;-71
2023/03/05 01:56:30;;;;;;;4.43;1.25;;;;;;;2.50;100.00;101488.69;6328495;28;20047;-71
2023/03/05 01:59:32;;;;;;;2.15;0.90;;;;;;;2.54;100.00;101482.59;6328466;28;20051;-71
2023/03/05 02:02:34;;;;;;;4.25;1.67;;;;;;;2.46;100.00;101480.94;6328621;28;20051;-71
2023/03/05 02:05:37;;;;;;;2.75;1.35;;;;;;;2.52;100.00;101473.09;6328165;28;20044;-71
2023/03/05 02:08:39;;;;;;;5.10;1.50;;;;;;;2.50;100.00;101477.44;6328234;28;20048;-72
2023/03/05 02:11:42;;;;;;;6.07;2.28;;;;;;;2.50;100.00;101478.31;6328343;28;20055;-71
2023/03/05 02:14:46;;;;;;;4.10;1.08;;;;;;;2.45;100.00;101461.91;6327876;28;20356;-72
2023/03/05 02:17:48;;;;;;;5.00;1.73;;;;;;;2.44;100.00;101457.56;6318761;28;20048;-71
2023/03/05 02:20:52;;;;;;;5.28;1.48;;;;;;;2.41;100.00;101456.78;6304980;28;20052;-71
2023/03/05 02:23:55;;;;;;;5.07;1.27;;;;;;;2.33;100.00;101448.19;6328061;28;20048;-71
2023/03/05 02:26:56;;;;;;;8.77;1.27;;;;;;;2.37;100.00;101461.13;6327623;28;20044;-71
2023/03/05 02:29:58;;;;;;;6.53;1.13;;;;;;;2.48;100.00;101448.03;6327897;28;20047;-71
2023/03/05 02:32:59;;;;;;;9.73;1.40;;;;;;;2.44;100.00;101443.75;6327721;28;20047;-72
2023/03/05 02:36:00;;;;;;;6.88;2.00;;;;;;;2.42;100.00;101461.06;6327649;28;20047;-71
2023/03/05 02:39:04;;;;;;;0.95;0.90;;;;;;;2.40;100.00;101455.03;6327528;28;20058;-72
2023/03/05 02:42:06;;;;;;;1.88;1.08;;;;;;;2.35;100.00;101441.25;6327703;28;20051;-71
2023/03/05 02:45:09;;;;;;;2.28;0.98;;;;;;;2.26;100.00;101443.03;6326330;28;20044;-72
2023/03/05 02:48:11;;;;;;;2.05;0.90;;;;;;;2.22;100.00;101440.47;6327081;28;20382;-72
2023/03/05 02:51:13;;;;;;;4.72;1.35;;;;;;;2.27;100.00;101433.50;6324307;28;20051;-72
2023/03/05 02:54:15;;;;;;;3.75;2.22;;;;;;;2.21;100.00;101428.38;6323280;28;20043;-72
2023/03/05 02:57:17;;;;;;;6.20;1.45;;;;;;;2.16;100.00;101431.00;6327148;28;20428;-72
2023/03/05 03:00:19;;;;;;;7.70;2.00;;;;;;;2.13;100.00;101420.66;6326994;28;20051;-72
2023/03/05 03:03:20;;;;;;;1.23;0.98;;;;;;;2.16;100.00;101422.38;6327185;28;20048;-72
2023/03/05 03:06:21;;;;;;;4.68;1.95;;;;;;;2.16;100.00;101419.78;6326515;28;20047;-72
2023/03/05 03:09:24;;;;;;;4.53;1.75;;;;;;;2.15;100.00;101405.09;6326832;28;20052;-72
2023/03/05 03:12:26;;;;;;;9.07;1.55;;;;;;;2.17;100.00;101406.78;6326770;28;20068;-72
2023/03/05 03:15:27;;;;;;;4.63;1.75;;;;;;;2.17;100.00;101409.38;6326372;28;20305;-72
2023/03/05 03:18:28;;;;;;;6.65;1.65;;;;;;;2.22;100.00;101406.75;6326563;28;20058;-71
2023/03/05 03:21:30;;;;;;;7.38;1.45;;;;;;;2.21;100.00;101397.28;6318435;28;20058;-71
2023/03/05 03:24:33;;;;;;;2.30;1.48;;;;;;;2.22;100.00;101396.38;6326524;28;20058;-72
2023/03/05 03:27:35;;;;;;;2.50;1.58;;;;;;;2.20;100.00;101386.03;6326138;28;20048;-73
2023/03/05 03:30:36;;;;;;;2.85;1.35;;;;;;;2.21;100.00;101397.28;6326551;28;20052;-72
2023/03/05 03:33:38;;;;;;;2.70;0.95;;;;;;;2.26;100.00;101401.53;6326281;28;20058;-71
2023/03/05 03:36:39;;;;;;;7.13;1.73;;;;;;;2.21;100.00;101392.94;6326171;28;20047;-72
2023/03/05 03:39:41;;;;;;;3.92;1.65;;;;;;;2.24;100.00;101389.47;6323086;28;20360;-71
2023/03/05 03:42:43;;;;;;;2.30;1.30;;;;;;;2.25;100.00;101392.03;6326021;28;20055;-71
2023/03/05 03:45:44;;;;;;;1.10;1.00;;;;;;;2.18;100.00;101384.31;6325730;28;20040;-72
2023/03/05 03:48:49;;;;;;;1.70;1.17;;;;;;;2.15;100.00;101371.41;6323352;28;20047;-72
2023/03/05 03:51:53;;;;;;;5.85;1.73;;;;;;;2.20;100.00;101375.66;6324417;28;20058;-72
2023/03/05 03:55:00;;;;;;;3.90;1.98;;;;;;;2.23;100.00;101367.03;6300292;28;20398;-72
2023/03/05 03:58:02;;;;;;;4.57;1.95;;;;;;;2.21;100.00;101359.22;6300483;28;20056;-72
2023/03/05 04:01:03;;;;;;;6.15;1.80;;;;;;;2.25;100.00;101362.66;6300432;28;20125;-72
2023/03/05 04:04:06;;;;;;;6.07;1.70;;;;;;;2.24;100.00;101353.16;6312344;28;20055;-72
2023/03/05 04:07:08;;;;;;;3.85;1.60;;;;;;;2.25;100.00;101353.16;6325243;28;20040;-72
2023/03/05 04:10:11;;;;;;;4.72;2.15;;;;;;;2.20;100.00;101348.88;6313048;28;20048;-72
2023/03/05 04:13:13;;;;;;;1.95;1.38;;;;;;;2.20;100.00;101344.56;6300237;28;20048;-72
2023/03/05 04:16:14;;;;;;;5.65;1.92;;;;;;;2.22;100.00;101341.94;6299860;28;20348;-72
2023/03/05 04:19:16;;;;;;;1.85;1.50;;;;;;;2.23;100.00;101346.28;6300212;28;20055;-72
2023/03/05 04:22:18;;;;;;;6.07;1.65;;;;;;;2.18;100.00;101342.84;6300051;28;20047;-72
2023/03/05 04:25:20;;;;;;;1.33;1.23;;;;;;;2.23;100.00;101336.75;6324824;28;20040;-72
2023/03/05 04:28:22;;;;;;;8.50;1.77;;;;;;;2.24;100.00;101335.03;6324989;28;20048;-72
2023/03/05 04:31:23;;;;;;;1.65;1.20;;;;;;;2.22;100.00;101327.22;6315390;28;20047;-72
2023/03/05 04:34:25;;;;;;;1.65;1.55;;;;;;;2.24;100.00;101322.91;6324858;28;20051;-72
2023/03/05 04:37:27;;;;;;;6.40;1.80;;;;;;;2.24;100.00;101325.50;6310463;28;20051;-72
2023/03/05 04:40:30;;;;;;;10.02;2.10;;;;;;;2.21;100.00;101324.66;6282162;28;20044;-72
2023/03/05 04:43:32;;;;;;;3.95;1.50;;;;;;;2.24;100.00;101328.09;6282578;28;20052;-72
2023/03/05 04:46:33;;;;;;;3.80;2.10;;;;;;;2.32;100.00;101315.06;6298917;28;20079;-72
2023/03/05 04:49:34;;;;;;;13.02;2.30;;;;;;;2.33;100.00;101305.56;6299481;28;20648;-72
2023/03/05 04:52:38;;;;;;;5.22;1.50;;;;;;;2.31;100.00;101313.31;6307849;28;20048;-72
2023/03/05 04:55:42;;;;;;;4.05;2.25;;;;;;;2.24;100.00;101309.09;6304070;28;20043;-73
2023/03/05 04:58:43;;;;;;;1.73;1.55;;;;;;;2.23;100.00;101302.19;6306009;28;20105;-72
2023/03/05 05:01:45;;;;;;;2.58;1.23;;;;;;;2.23;100.00;101307.38;6307029;28;20052;-72
2023/03/05 05:04:46;;;;;;;2.80;1.50;;;;;;;2.23;100.00;101308.22;6303012;28;20086;-72
2023/03/05 05:07:47;;;;;;;4.38;1.42;;;;;;;2.23;100.00;101303.06;6306635;28;20051;-71
2023/03/05 05:10:57;;;;;;;8.63;1.80;;;;;;;2.25;100.00;101300.44;6310002;28;20052;-72
2023/03/05 05:13:59;;;;;;;8.55;1.92;;;;;;;2.29;100.00;101296.94;6285270;28;20060;-72
2023/03/05 05:17:03;;;;;;;7.82;2.55;;;;;;;2.23;100.00;101297.88;6285280;28;20055;-72
2023/03/05 05:20:07;;;;;;;9.27;2.55;;;;;;;2.22;100.00;101293.53;6304998;28;20075;-72
2023/03/05 05:23:08;;;;;;;7.20;2.35;;;;;;;2.20;100.00;101292.69;6310591;28;20047;-72
2023/03/05 05:26:13;;;;;;;7.78;2.28;;;;;;;2.23;100.00;101279.72;6310231;28;20550;-72
2023/03/05 05:29:14;;;;;;;2.92;1.85;;;;;;;2.32;100.00;101281.34;6309720;28;20115;-71
2023/03/05 05:32:15;;;;;;;2.83;1.77;;;;;;;2.32;100.00;101289.13;6310033;28;20040;-72
2023/03/05 05:35:17;;;;;;;6.75;1.92;;;;;;;2.26;100.00;101299.53;6316920;28;20048;-72
2023/03/05 05:38:18;;;;;;;7.25;2.28;;;;;;;2.23;100.00;101286.63;6322634;28;20044;-72
2023/03/05 05:41:21;;;;;;;2.35;1.40;;;;;;;2.29;100.00;101292.59;6318601;28;20341;-72
2023/03/05 05:44:22;;;;;;;3.72;1.63;;;;;;;2.28;100.00;101293.50;6328749;28;20553;-71
2023/03/05 05:47:24;;;;;;;7.45;1.52;;;;;;;2.31;100.00;101284.78;6326703;28;20056;-72
2023/03/05 05:50:26;;;;;;;4.75;2.00;;;;;;;2.30;100.00;101285.69;6328763;28;20044;-72
2023/03/05 05:53:27;;;;;;;3.15;1.50;;;;;;;2.38;100.00;101280.41;6328618;28;20048;-72
2023/03/05 05:56:30;;;;;;;5.13;2.10;;;;;;;2.44;100.00;101268.22;6328385;28;20051;-72
2023/03/05 05:59:32;;;;;;;3.78;1.48;;;;;;;2.41;100.00;101286.44;6321179;28;20055;-71
2023/03/05 06:02:33;;;;;;;9.10;1.90;;;;;;;2.48;100.00;101282.88;6316666;28;20045;-71
2023/03/05 06:05:35;;;;;;;2.75;1.90;;;;;;;2.48;100.00;101277.69;6313937;28;20116;-71
2023/03/05 06:08:36;;;;;;;4.35;2.13;;;;;;;2.48;100.00;101276.84;6313474;28;20044;-72
2023/03/05 06:11:39;;;;;;;3.90;1.98;;;;;;;2.48;100.00;101271.66;6313696;28;20048;-71
2023/03/05 06:14:40;;;;;;;10.77;1.42;;;;;;;2.47;100.00;101273.38;6311298;28;20059;-71
2023/03/05 06:17:41;;;;;;;9.07;1.83;;;;;;;2.48;100.00;101269.91;6313476;28;20048;-72
2023/03/05 06:20:43;;;;;;;4.95;1.98;;;;;;;2.46;100.00;101274.28;6307952;28;20388;-72
2023/03/05 06:23:46;;;;;;;3.28;1.48;;;;;;;2.41;100.00;101267.44;6319873;28;20055;-72
2023/03/05 06:26:48;;;;;;;2.88;1.42;;;;;;;2.43;100.00;101266.53;6327480;28;20048;-72
2023/03/05 06:29:52;;;;;;;8.10;1.92;;;;;;;2.37;100.00;101264.00;6318932;28;20053;-72
2023/03/05 06:32:53;;;;;;;2.65;1.00;;;;;;;2.33;100.00;101261.47;6327623;28;20052;-72
2023/03/05 06:35:55;;;;;;;2.03;1.25;;;;;;;2.45;100.00;101269.97;6327555;28;20048;-72
2023/03/05 06:38:57;;;;;;;3.28;1.38;;;;;;;2.40;100.00;101268.28;6327401;28;20428;-71
2023/03/05 06:41:59;;;;;;;3.15;1.30;;;;;;;2.46;100.00;101263.03;6318998;28;20045;-72
2023/03/05 06:45:01;;;;;;;3.53;1.95;;;;;;;2.48;100.00;101271.66;6327350;28;20063;-72
2023/03/05 06:48:02;;;;;;;2.42;1.30;;;;;;;2.42;100.00;101267.41;6319519;28;20043;-72
2023/03/05 06:51:04;;;;;;;7.43;1.70;;;;;;;2.46;100.00;101270.81;6324045;28;20436;-72
2023/03/05 06:54:07;;;;;;;5.20;1.15;;;;;;;2.37;100.00;101264.00;6322017;28;20114;-72
2023/03/05 06:57:10;;;;;;;2.70;1.27;;;;;;;2.41;100.00;101265.69;6327085;28;20040;-71
2023/03/05 07:00:13;;;;;;;1.80;1.13;;;;;;;2.53;100.00;101257.75;6326986;28;20126;-72
2023/03/05 07:03:14;;;;;;;2.30;1.25;;;;;;;2.49;100.00;101271.63;6326719;28;20048;-72
2023/03/05 07:06:16;;;;;;;2.28;1.27;;;;;;;2.49;100.00;101262.97;6321712;28;20048;-72
2023/03/05 07:09:17;;;;;;;4.72;1.55;;;;;;;2.56;100.00;101267.25;6301405;28;20540;-72
2023/03/05 07:12:20;;;;;;;2.50;1.38;;;;;;;2.52;100.00;101255.19;6301634;28;20082;-72
2023/03/05 07:15:21;;;;;;;2.75;1.15;;;;;;;2.52;100.00;101261.22;6301340;28;20424;-72
2023/03/05 07:18:22;;;;;;;3.42;1.55;;;;;;;2.43;100.00;101257.88;6307370;28;20040;-71
2023/03/05 07:21:26;;;;;;;4.03;1.42;;;;;;;2.45;100.00;101259.59;6326053;28;20367;-72
2023/03/05 07:24:28;;;;;;;2.53;1.38;;;;;;;2.45;100.00;101257.00;6326371;28;20047;-72
2023/03/05 07:27:35;;;;;;;2.70;0.90;;;;;;;2.44;100.00;101260.44;6326078;28;20050;-72
2023/03/05 07:30:36;;;;;;;1.13;1.00;;;;;;;2.48;100.00;101259.53;6326274;28;20044;-72
2023/03/05 07:33:37;;;;;;;1.75;0.93;;;;;;;2.46;100.00;101250.94;6326344;28;20058;-72
2023/03/05 07:36:39;;;;;;;0.95;0.85;;;;;;;2.46;100.00;101248.34;6325789;28;20366;-74
2023/03/05 07:39:40;;;;;;;2.65;1.45;;;;;;;2.55;100.00;101255.16;6314636;28;20349;-72
2023/03/05 07:42:43;;;;;;;3.17;1.25;;;;;;;2.65;100.00;101250.69;6301606;28;20055;-72
2023/03/05 07:45:45;;;;;;;1.50;1.00;;;;;;;2.71;100.00;101258.41;6311079;28;20063;-72
2023/03/05 07:48:47;;;;;;;4.25;0.90;;;;;;;2.62;100.00;101245.53;6308024;28;20051;-72
2023/03/05 07:51:48;;;;;;;5.43;1.40;;;;;;;2.71;100.00;101248.00;6309170;28;20056;-73
2023/03/05 07:54:49;;;;;;;1.83;1.00;;;;;;;2.76;100.00;101248.81;6300472;28;20053;-72
2023/03/05 07:57:52;;;;;;;1.63;1.13;;;;;;;2.85;100.00;101246.09;6308499;28;20044;-72
2023/03/05 08:00:53;;;;;;;1.90;0.80;;;;;;;2.90;100.00;101239.09;6300480;28;20048;-72
2023/03/05 08:03:55;;;;;;;2.17;0.93;;;;;;;2.97;100.00;101242.47;6305359;28;20053;-72
2023/03/05 08:06:56;;;;;;;0.88;0.73;;;;;;;2.87;100.00;101254.75;6301838;28;20048;-73
2023/03/05 08:09:57;;;;;;;1.25;0.90;;;;;;;2.87;100.00;101248.69;6304184;28;20045;-72
2023/03/05 08:13:00;;;;;;;5.50;1.13;;;;;;;2.82;100.00;101251.34;6299454;28;20055;-73
2023/03/05 08:16:04;;;;;;;0.60;0.60;;;;;;;2.87;100.00;101249.53;6299494;28;20354;-72
2023/03/05 08:19:07;;;;;;;1.50;0.80;;;;;;;2.89;100.00;101246.91;6305599;28;20051;-73
2023/03/05 08:22:08;;;;;;;1.75;1.35;;;;;;;2.86;100.00;101246.94;6324095;28;20059;-72
2023/03/05 08:25:10;;;;;;;6.95;1.08;;;;;;;2.85;100.00;101246.09;6325203;28;20047;-73
2023/03/05 08:28:12;;;;;;;1.30;1.00;;;;;;;2.96;100.00;101240.78;6324932;28;20118;-73
2023/03/05 08:31:15;;;;;;;7.45;1.35;;;;;;;2.95;100.00;101244.22;6325437;28;20051;-73
2023/03/05 08:34:17;;;;;;;1.38;0.90;;;;;;;2.89;100.00;101242.59;6325013;28;20048;-73
2023/03/05 08:37:18;;;;;;;1.58;0.60;;;;;;;2.95;100.00;101234.72;6324966;28;20352;-73
2023/03/05 08:40:19;;;;;;;2.88;1.00;;;;;;;2.97;100.00;101245.09;6324925;28;20040;-73
2023/03/05 08:43:22;;;;;;;4.20;0.82;;;;;;;2.85;100.00;101234.84;6316211;28;20048;-73
2023/03/05 08:46:24;;;;;;;2.95;1.23;;;;;;;2.99;100.00;101233.78;6324656;28;20044;-73
2023/03/05 08:49:25;;;;;;;6.93;1.27;;;;;;;3.10;100.00;101230.19;6320021;28;20055;-72
2023/03/05 08:52:27;;;;;;;0.68;0.68;;;;;;;3.05;100.00;101225.06;6322897;28;20048;-72
2023/03/05 08:55:28;;;;;;;0.82;0.80;;;;;;;3.05;100.00;101228.50;6324980;28;20048;-73
2023/03/05 08:58:31;;;;;;;4.45;1.00;;;;;;;3.16;100.00;101219.69;6316397;28;20470;-73
2023/03/05 09:01:32;;;;;;;0.85;0.63;;;;;;;3.27;100.00;101228.16;6324813;28;20044;-72
2023/03/05 09:04:34;;;;;;;9.45;1.25;;;;;;;3.34;100.00;101215.97;6324935;28;20056;-72
2023/03/05 09:07:36;;;;;;;1.95;1.20;;;;;;;3.20;100.00;101214.44;6324272;28;20051;-72
2023/03/05 09:10:38;;;;;;;4.07;1.33;;;;;;;3.31;100.00;101209.91;6324880;28;20055;-73
2023/03/05 09:13:41;;;;;;;1.38;0.93;;;;;;;3.38;100.00;101208.09;6324629;28;20356;-73
2023/03/05 09:16:42;;;;;;;1.77;0.93;;;;;;;3.38;100.00;101209.84;6324473;28;20040;-73
2023/03/05 09:19:43;;;;;;;1.50;1.20;;;;;;;3.43;100.00;101202.81;6322964;28;20048;-73
2023/03/05 09:22:44;;;;;;;7.93;1.10;;;;;;;3.50;100.00;101202.72;6324180;28;20355;-73
2023/03/05 09:25:46;;;;;;;3.08;0.90;;;;;;;3.57;100.00;101203.44;6324288;28;20055;-72
2023/03/05 09:28:49;;;;;;;1.88;1.15;;;;;;;3.70;100.00;101197.16;6324547;28;20074;-73
2023/03/05 09:31:51;;;;;;;1.95;0.90;;;;;;;3.60;100.00;101197.34;6324494;28;20463;-72
2023/03/05 09:34:52;;;;;;;0.98;0.82;;;;;;;3.54;100.00;101195.69;6324118;28;20360;-72
2023/03/05 09:37:54;;;;;;;1.95;1.02;;;;;;;3.72;100.00;101184.97;6324143;28;20329;-72
2023/03/05 09:41:01;;;;;;;6.93;0.93;;;;;;;3.68;100.00;101193.75;6324325;28;20052;-72
2023/03/05 09:44:17;;;;;;;9.98;1.17;;;;;;;3.76;100.00;101194.44;6324355;28;20075;-73
2023/03/05 09:47:38;;;;;;;0.90;0.70;;;;;;;3.75;100.00;101184.94;6324078;28;20051;-72
2023/03/05 09:50:42;;;;;;;2.03;0.93;;;;;;;3.69;100.00;101195.44;6322101;28;20048;-72
2023/03/05 09:53:47;;;;;;;2.85;0.70;;;;;;;3.66;100.00;101181.63;6317982;28;20044;-73
2023/03/05 09:56:51;;;;;;;4.47;0.90;;;;;;;3.82;100.00;101188.28;6328522;28;20363;-72
2023/03/05 09:59:57;;;;;;;2.25;1.55;;;;;;;3.87;100.00;101183.00;6328519;28;20055;-72
2023/03/05 10:03:03;;;;;;;1.75;1.08;;;;;;;3.97;100.00;101184.53;6328563;28;20352;-73
2023/03/05 10:06:17;;;;;;;13.15;1.05;;;;;;;4.03;100.00;101179.22;6328080;28;20406;-73
2023/03/05 10:09:42;;;;;;;6.57;1.20;;;;;;;4.05;100.00;101180.91;6328255;28;20051;-73
2023/03/05 10:12:45;;;;;;;3.22;1.23;;;;;;;4.11;100.00;101172.13;6328351;28;20436;-73
2023/03/05 10:15:59;;;;;;;1.10;0.70;;;;;;;4.14;100.00;101173.81;6328007;28;20055;-73
2023/03/05 10:19:09;;;;;;;1.00;0.40;;;;;;;4.16;100.00;101166.81;6326533;28;20051;-73
2023/03/05 10:22:17;;;;;;;1.98;0.63;;;;;;;4.19;100.00;101159.81;6328173;28;20055;-72
2023/03/05 10:25:23;;;;;;;3.55;0.98;;;;;;;4.36;100.00;101162.09;6328100;28;20051;-73
2023/03/05 10:28:34;;;;;;;2.40;0.80;;;;;;;4.37;100.00;101163.78;6327223;28;20048;-73
2023/03/05 10:31:46;;;;;;;1.10;0.90;;;;;;;4.53;100.00;101159.09;6328150;28;20056;-73
2023/03/05 10:35:12;;;;;;;2.65;0.52;;;;;;;4.73;100.00;101159.53;6327663;28;20052;-72
2023/03/05 10:38:31;;;;;;;4.22;0.50;;;;;;;4.67;100.00;101148.38;6324289;28;20063;-73
2023/03/05 10:41:41;;;;;;;1.58;0.93;;;;;;;4.55;100.00;101142.56;6327612;28;20059;-73
2023/03/05 10:44:46;;;;;;;1.63;0.60;;;;;;;4.53;100.00;101146.09;6327580;28;20040;-73
2023/03/05 10:47:53;;;;;;;4.90;0.73;;;;;;;4.62;100.00;101134.63;6327055;28;20059;-73
2023/03/05 10:50:59;;;;;;;1.48;0.80;;;;;;;4.60;100.00;101137.25;6323560;28;20196;-72
2023/03/05 10:54:11;;;;;;;5.18;0.60;;;;;;;4.59;100.00;101140.75;6327162;28;20048;-73
2023/03/05 10:57:18;;;;;;;1.10;0.90;;;;;;;4.55;100.00;101132.16;6327117;28;20052;-73
2023/03/05 11:00:23;;;;;;;5.93;1.23;;;;;;;4.47;100.00;101126.25;6327338;28;20052;-73
2023/03/05 11:03:25;;;;;;;2.10;1.17;;;;;;;4.52;100.00;101123.56;6319341;28;20051;-72
2023/03/05 11:06:34;;;;;;;7.43;0.90;;;;;;;4.49;100.00;101121.88;6326020;28;20379;-73
2023/03/05 11:09:35;;;;;;;7.03;0.95;;;;;;;4.52;100.00;101123.56;6318578;28;20055;-73
2023/03/05 11:12:38;;;;;;;1.90;1.02;;;;;;;4.60;100.00;101113.00;6326828;28;20044;-73
2023/03/05 11:15:40;;;;;;;0.80;0.55;;;;;;;4.53;100.00;101117.47;6326842;28;20051;-73
2023/03/05 11:18:45;;;;;;;4.53;0.90;;;;;;;4.45;100.00;101120.25;6325174;28;20044;-74
2023/03/05 11:22:06;;;;;;;1.15;0.60;;;;;;;4.24;100.00;101120.72;6319284;28;20055;-73
2023/03/05 11:25:20;;;;;;;0.52;0.50;;;;;;;4.07;100.00;101114.09;6326437;28;20044;-73
2023/03/05 11:28:23;;;;;;;2.67;0.60;;;;;;;3.78;100.00;101106.03;6319764;28;20146;-74
2023/03/05 11:31:26;;;;;;;2.50;0.68;;;;;;;3.94;100.00;101106.59;6326566;28;20055;-73
2023/03/05 11:34:34;;;;;;;0.60;0.45;;;;;;;4.00;100.00;101102.13;6326386;28;20044;-73
2023/03/05 11:37:35;;;;;;;1.30;0.70;;;;;;;3.83;100.00;101101.59;6326037;28;20475;-73
2023/03/05 11:40:37;;;;;;;0.55;0.47;;;;;;;3.81;100.00;101100.75;6326224;28;20360;-73
2023/03/05 11:43:40;;;;;;;0.68;0.50;;;;;;;3.85;100.00;101102.41;6326282;28;20048;-73
2023/03/05 11:46:45;;;;;;;5.60;1.40;;;;;;;3.72;100.00;101104.41;6309000;28;20052;-73
2023/03/05 11:49:54;;;;;;;3.42;1.25;;;;;;;3.62;100.00;101092.47;6305049;28;20040;-73
2023/03/05 11:52:58;;;;;;;3.15;1.40;;;;;;;3.65;100.00;101089.81;6319605;28;20044;-72
2023/03/05 11:56:05;;;;;;;1.45;0.80;;;;;;;3.84;100.00;101084.25;6317488;28;20059;-72
2023/03/05 11:59:13;;;;;;;3.70;1.30;;;;;;;4.13;100.00;101075.84;6325962;28;20051;-73
2023/03/05 12:02:19;;;;;;;9.15;1.42;;;;;;;4.20;100.00;101060.09;6325910;28;20044;-73
2023/03/05 12:05:22;;;;;;;2.00;1.25;;;;;;;4.30;100.00;101051.19;6325628;28;20348;-72
2023/03/05 12:08:29;;;;;;;2.60;1.38;;;;;;;4.43;100.00;101045.69;6325351;28;20040;-72
2023/03/05 12:11:32;;;;;;;3.22;1.40;;;;;;;4.71;100.00;101040.69;6325799;28;20055;-72
2023/03/05 12:14:42;;;;;;;1.83;1.00;;;;;;;5.12;100.00;101030.97;6325296;28;20055;-72
2023/03/05 12:17:47;;;;;;;;;;;;;;;5.42;100.00;101024.09;6325228;28;20444;-73
2023/03/05 12:20:59;;;;;;;3.30;1.35;;;;;;;5.68;100.00;101013.81;6317156;28;19928;-72
2023/03/05 12:24:03;;;;;;;5.55;1.23;;;;;;;5.91;100.00;101010.50;6325594;28;20048;-72
2023/03/05 12:27:13;;;;;;;1.48;0.93;;;;;;;6.20;100.00;101003.59;6325300;28;20044;-72
2023/03/05 12:30:55;;;;;;;1.15;0.80;;;;;;;6.04;100.00;100991.03;6325364;28;20432;-72
2023/03/05 12:33:56;;;;;;;3.83;0.95;;;;;;;5.80;100.00;100991.72;6324989;28;20134;-72
2023/03/05 12:36:59;;;;;;;4.80;1.30;;;;;;;5.57;100.00;100985.41;6325264;28;20044;-73
2023/03/05 12:40:03;;;;;;;2.22;0.77;;;;;;;5.48;100.00;100983.06;6325153;28;20071;-73
2023/03/05 12:43:06;;;;;;;1.25;0.57;;;;;;;5.52;100.00;100989.91;6325257;28;20044;-72
2023/03/05 12:46:24;;;;;;;0.40;0.40;;;;;;;5.41;100.00;100981.56;6323076;28;20549;-72
2023/03/05 12:49:28;;;;;;;5.13;0.75;;;;;;;5.41;100.00;100981.56;6324968;28;20036;-72
2023/03/05 12:52:33;;;;;;;1.05;0.68;;;;;;;5.44;100.00;100973.63;6324860;28;20459;-72
2023/03/05 12:55:38;;;;;;;0.88;0.55;;;;;;;5.35;100.00;100974.75;6324913;28;20059;-72
2023/03/05 12:58:43;;;;;;;0.80;0.50;;;;;;;5.34;100.00;100972.19;6324811;28;20055;-72
2023/03/05 13:01:50;;;;;;;5.68;1.13;;;;;;;5.31;100.00;100962.72;6324936;28;20052;-73
2023/03/05 13:04:56;;;;;;;1.50;0.40;;;;;;;5.18;100.00;100950.03;6306736;28;20056;-73
2023/03/05 13:08:17;;;;;;;2.00;0.50;;;;;;;5.21;100.00;100944.75;6309338;28;20080;-74
2023/03/05 13:11:21;;;;;;;2.13;0.82;;;;;;;5.21;100.00;100950.81;6315544;28;20045;-75
2023/03/05 13:14:29;;;;;;;0.50;0.50;;;;;;;5.27;100.00;100945.47;6319153;28;20055;-72
2023/03/05 13:17:34;;;;;;;0.82;0.60;;;;;;;5.24;100.00;100935.13;6309955;28;20055;-73
2023/03/05 13:20:38;;;;;;;7.50;0.90;;;;;;;5.28;100.00;100936.75;6300199;28;20045;-73
2023/03/05 13:23:56;;;;;;;0.65;0.47;;;;;;;5.50;100.00;100934.38;6318161;28;20059;-74
2023/03/05 13:26:57;;;;;;;3.30;0.63;;;;;;;5.78;100.00;100925.72;6301622;28;20381;-73
2023/03/05 13:29:59;;;;;;;0.55;0.45;;;;;;;6.22;100.00;100915.66;6309631;28;20051;-74
2023/03/05 13:33:02;;;;;;;0.47;0.47;;;;;;;6.76;100.00;100919.91;6306973;28;20060;-74
2023/03/05 13:36:05;;;;;;;1.55;0.60;;;;;;;6.94;100.00;100929.72;6316162;28;20105;-74
2023/03/05 13:39:07;;;;;;;1.90;0.52;;;;;;;6.94;100.00;100913.19;6312312;28;20063;-73
2023/03/05 13:42:17;;;;;;;1.08;0.63;;;;;;;6.83;100.00;100909.22;6308963;28;20048;-74
2023/03/05 13:45:23;;;;;;;;;;;;;;;6.80;100.00;100914.53;6313674;28;20440;-74
2023/03/05 13:48:26;;;;;;;0.40;0.40;;;;;;;6.92;100.00;100899.34;6305902;28;20205;-73
2023/03/05 13:51:41;;;;;;;2.17;0.60;;;;;;;6.93;100.00;100901.06;6316185;28;20047;-73
2023/03/05 13:54:43;;;;;;;2.15;0.60;;;;;;;7.17;100.00;100883.63;6313813;28;20049;-73
2023/03/05 13:57:46;;;;;;;3.40;0.55;;;;;;;7.17;100.00;100883.63;6304996;28;20054;-73
2023/03/05 14:00:47;;;;;;;1.08;0.50;;;;;;;7.44;100.00;100873.88;6319224;28;20059;-73
2023/03/05 14:03:50;;;;;;;3.72;0.63;;;;;;;7.55;98.59;100877.81;6321139;28;20055;-74
2023/03/05 14:06:57;;;;;;;0.50;0.50;;;;;;;7.45;100.00;100873.84;6318226;28;20040;-73
2023/03/05 14:10:00;;;;;;;4.88;0.90;;;;;;;7.38;100.00;100860.16;6313912;28;20076;-73
2023/03/05 14:13:04;;;;;;;0.93;0.50;;;;;;;6.95;100.00;100854.81;6311504;28;20048;-73
2023/03/05 14:16:08;;;;;;;1.38;0.50;;;;;;;6.80;100.00;100859.69;6306460;28;20591;-73